Time;durP1;ratioP1;P1;durP2;ratioP2;P2;SDS_P1;SDS_P2;PMS_P1;PMS_P2;Temp;Humidity;BMP_temperature;BMP_pressure;BME280_temperature;BME280_humidity;BME280_pressure;Samples;Min_cycle;Max_cycle;Signal;HPM_P1;HPM_P2
2023/04/23 00:01:28;;;;;;;99.93;51.45;;;;;;;;;;4954273;28;93426;-68
2023/04/23 00:03:56;;;;;;;102.22;50.58;;;;;;;;;;4967228;28;92710;-68
2023/04/23 00:06:25;;;;;;;106.07;53.28;;;;;;;;;;4952613;28;97311;-68
2023/04/23 00:08:56;;;;;;;106.78;52.03;;;;;;;;;;4954478;28;92599;-68
2023/04/23 00:11:22;;;;;;;98.45;50.40;;;;;;;;;;4972969;28;93280;-68
2023/04/23 00:13:48;;;;;;;105.90;51.70;;;;;;;;;;4973868;28;94412;-68
2023/04/23 00:16:15;;;;;;;106.32;52.88;;;;;;;;;;4958129;28;93189;-68
2023/04/23 00:18:41;;;;;;;108.00;52.13;;;;;;;;;;4973791;28;92420;-68
2023/04/23 00:21:08;;;;;;;105.20;52.92;;;;;;;;;;4967929;28;92771;-68
2023/04/23 00:23:34;;;;;;;108.63;51.97;;;;;;;;;;4954524;28;91700;-68
2023/04/23 00:26:00;;;;;;;101.00;51.10;;;;;;;;;;4956694;28;92691;-68
2023/04/23 00:28:27;;;;;;;102.22;51.85;;;;;;;;;;4958751;28;92701;-68
2023/04/23 00:30:53;;;;;;;102.03;50.22;;;;;;;;;;4964830;28;95307;-68
2023/04/23 00:33:19;;;;;;;104.68;53.13;;;;;;;;;;4973532;28;94421;-68
2023/04/23 00:35:46;;;;;;;100.88;51.22;;;;;;;;;;4972092;28;92443;-68
2023/04/23 00:38:12;;;;;;;107.43;52.08;;;;;;;;;;4971988;28;93029;-68
2023/04/23 00:40:38;;;;;;;106.35;51.90;;;;;;;;;;4969940;28;93424;-68
2023/04/23 00:43:06;;;;;;;101.07;51.03;;;;;;;;;;4970881;28;92564;-68
2023/04/23 00:45:32;;;;;;;98.32;51.55;;;;;;;;;;4971157;28;94190;-68
2023/04/23 00:47:59;;;;;;;106.78;52.00;;;;;;;;;;4974541;28;92676;-68
2023/04/23 00:50:25;;;;;;;91.70;48.83;;;;;;;;;;4970118;28;92453;-68
2023/04/23 00:52:52;;;;;;;108.97;51.47;;;;;;;;;;4972165;28;93392;-68
2023/04/23 00:55:19;;;;;;;101.75;51.85;;;;;;;;;;4968160;28;94956;-68
2023/04/23 00:57:46;;;;;;;101.00;50.50;;;;;;;;;;4971003;28;95719;-68
2023/04/23 01:00:13;;;;;;;100.35;50.53;;;;;;;;;;4972187;28;93501;-68
2023/04/23 01:02:41;;;;;;;102.97;51.35;;;;;;;;;;4961289;28;92514;-68
2023/04/23 01:05:08;;;;;;;101.95;51.60;;;;;;;;;;4973158;28;93471;-68
2023/04/23 01:07:35;;;;;;;108.70;53.22;;;;;;;;;;4963239;28;94548;-68
2023/04/23 01:10:05;;;;;;;106.88;52.65;;;;;;;;;;4967449;28;93717;-68
2023/04/23 01:12:32;;;;;;;105.85;51.22;;;;;;;;;;4964722;28;93700;-68
2023/04/23 01:14:59;;;;;;;104.03;53.30;;;;;;;;;;4959163;28;92606;-68
2023/04/23 01:17:25;;;;;;;108.40;53.72;;;;;;;;;;4972088;28;94360;-68
2023/04/23 01:19:52;;;;;;;108.93;51.67;;;;;;;;;;4962248;28;96251;-68
2023/04/23 01:22:19;;;;;;;102.72;51.70;;;;;;;;;;4958067;28;92473;-68
2023/04/23 01:24:46;;;;;;;97.78;50.38;;;;;;;;;;4953305;28;93085;-68
2023/04/23 01:27:12;;;;;;;100.70;51.00;;;;;;;;;;4961039;28;92526;-68
2023/04/23 01:29:39;;;;;;;101.85;50.33;;;;;;;;;;4969285;28;93218;-68
2023/04/23 01:32:06;;;;;;;101.07;49.88;;;;;;;;;;4973273;28;94075;-68
2023/04/23 01:34:33;;;;;;;102.30;50.75;;;;;;;;;;4973297;28;92538;-68
2023/04/23 01:37:00;;;;;;;103.22;50.25;;;;;;;;;;4968520;28;93621;-68
2023/04/23 01:39:27;;;;;;;104.68;50.97;;;;;;;;;;4957874;28;93929;-68
2023/04/23 01:41:53;;;;;;;103.95;51.30;;;;;;;;;;4965177;28;92556;-68
2023/04/23 01:44:20;;;;;;;99.82;50.72;;;;;;;;;;4969157;28;96380;-68
2023/04/23 01:46:46;;;;;;;101.05;48.95;;;;;;;;;;4963108;28;93969;-68
2023/04/23 01:49:13;;;;;;;94.00;47.13;;;;;;;;;;4953515;28;92625;-68
2023/04/23 01:51:39;;;;;;;96.65;48.67;;;;;;;;;;4973257;28;93199;-68
2023/04/23 01:54:05;;;;;;;101.35;48.05;;;;;;;;;;4966328;28;92553;-68
2023/04/23 01:56:34;;;;;;;94.38;49.25;;;;;;;;;;4967549;28;93292;-68
2023/04/23 01:59:00;;;;;;;99.20;49.15;;;;;;;;;;4969042;28;93413;-68
2023/04/23 02:01:47;;;;;;;93.85;47.58;;;;;;;;;;4963536;28;91724;-68
2023/04/23 02:04:14;;;;;;;93.88;47.63;;;;;;;;;;4973182;28;92412;-68
2023/04/23 02:06:41;;;;;;;89.85;47.70;;;;;;;;;;4974668;28;93846;-68
2023/04/23 02:09:07;;;;;;;91.88;46.40;;;;;;;;;;4972076;28;94895;-68
2023/04/23 02:11:34;;;;;;;97.28;46.60;;;;;;;;;;4973479;28;95764;-68
2023/04/23 02:14:00;;;;;;;94.75;47.55;;;;;;;;;;4961203;28;93346;-68
2023/04/23 02:16:27;;;;;;;92.43;46.55;;;;;;;;;;4971857;28;94591;-68
2023/04/23 02:18:54;;;;;;;91.88;46.60;;;;;;;;;;4962325;28;94098;-68
2023/04/23 02:21:25;;;;;;;97.50;47.38;;;;;;;;;;4970707;28;93865;-68
2023/04/23 02:23:51;;;;;;;87.85;45.60;;;;;;;;;;4973056;28;94327;-69
2023/04/23 02:26:18;;;;;;;90.38;44.83;;;;;;;;;;4973826;28;92408;-68
2023/04/23 02:28:44;;;;;;;88.93;44.90;;;;;;;;;;4964896;28;92505;-68
2023/04/23 02:31:11;;;;;;;84.30;44.70;;;;;;;;;;4973553;28;93235;-68
2023/04/23 02:33:37;;;;;;;91.28;45.70;;;;;;;;;;4967823;28;95656;-68
2023/04/23 02:36:04;;;;;;;96.88;46.55;;;;;;;;;;4975687;28;93080;-68
2023/04/23 02:38:30;;;;;;;87.68;46.05;;;;;;;;;;4971429;28;93380;-68
2023/04/23 02:40:56;;;;;;;88.60;44.63;;;;;;;;;;4973074;28;93990;-68
2023/04/23 02:43:22;;;;;;;89.13;46.42;;;;;;;;;;4969079;28;93270;-68
2023/04/23 02:45:49;;;;;;;87.88;44.75;;;;;;;;;;4971487;28;93825;-68
2023/04/23 02:48:15;;;;;;;87.30;45.50;;;;;;;;;;4967606;28;92828;-68
2023/04/23 02:50:41;;;;;;;87.45;44.40;;;;;;;;;;4974691;28;93261;-68
2023/04/23 02:53:08;;;;;;;84.80;43.75;;;;;;;;;;4968522;28;95464;-68
2023/04/23 02:55:34;;;;;;;89.35;44.13;;;;;;;;;;4971632;28;92498;-68
2023/04/23 02:58:00;;;;;;;82.88;43.03;;;;;;;;;;4975942;28;94845;-68
2023/04/23 03:00:27;;;;;;;76.35;40.42;;;;;;;;;;4972501;28;92463;-68
2023/04/23 03:02:53;;;;;;;68.55;35.92;;;;;;;;;;4970022;28;93212;-68
2023/04/23 03:05:20;;;;;;;76.13;37.65;;;;;;;;;;4974065;28;93880;-68
2023/04/23 03:07:46;;;;;;;71.18;37.67;;;;;;;;;;4974963;28;92406;-68
2023/04/23 03:10:12;;;;;;;66.07;35.80;;;;;;;;;;4971339;28;93366;-68
2023/04/23 03:12:38;;;;;;;58.17;34.40;;;;;;;;;;4970698;28;94078;-68
2023/04/23 03:15:05;;;;;;;61.60;33.10;;;;;;;;;;4973181;28;91677;-68
2023/04/23 03:17:32;;;;;;;63.03;34.90;;;;;;;;;;4971225;28;93137;-68
2023/04/23 03:19:58;;;;;;;60.72;32.15;;;;;;;;;;4975448;28;92478;-68
2023/04/23 03:22:24;;;;;;;60.78;33.60;;;;;;;;;;4967988;28;94908;-68
2023/04/23 03:24:51;;;;;;;61.63;32.10;;;;;;;;;;4971582;28;93204;-68
2023/04/23 03:27:17;;;;;;;63.13;32.65;;;;;;;;;;4969846;28;92502;-68
2023/04/23 03:29:43;;;;;;;59.67;31.83;;;;;;;;;;4963515;28;92560;-68
2023/04/23 03:32:10;;;;;;;64.97;32.88;;;;;;;;;;4969492;28;93523;-68
2023/04/23 03:34:36;;;;;;;55.53;31.25;;;;;;;;;;4970244;28;92492;-68
2023/04/23 03:37:02;;;;;;;63.50;32.97;;;;;;;;;;4965392;28;92522;-68
2023/04/23 03:39:29;;;;;;;56.70;30.95;;;;;;;;;;4972879;28;93660;-68
2023/04/23 03:41:56;;;;;;;60.17;32.80;;;;;;;;;;4974982;28;92548;-68
2023/04/23 03:44:23;;;;;;;59.75;32.80;;;;;;;;;;4973039;28;93829;-68
2023/04/23 03:46:51;;;;;;;60.72;33.13;;;;;;;;;;4960711;28;94956;-68
2023/04/23 03:49:17;;;;;;;58.40;32.67;;;;;;;;;;4967180;28;96605;-68
2023/04/23 03:51:43;;;;;;;64.65;34.47;;;;;;;;;;4972181;28;94295;-68
2023/04/23 03:54:10;;;;;;;57.92;32.55;;;;;;;;;;4966071;28;92589;-68
2023/04/23 03:56:36;;;;;;;66.72;33.03;;;;;;;;;;4964358;28;93430;-68
2023/04/23 03:59:02;;;;;;;57.17;31.95;;;;;;;;;;4971652;28;94338;-68
2023/04/23 04:01:31;;;;;;;59.28;31.27;;;;;;;;;;4963713;28;92461;-68
2023/04/23 04:03:57;;;;;;;60.83;30.65;;;;;;;;;;4971459;28;92666;-68
2023/04/23 04:06:25;;;;;;;57.95;32.75;;;;;;;;;;4970426;28;92461;-68
2023/04/23 04:08:51;;;;;;;56.92;32.13;;;;;;;;;;4972727;28;94278;-68
2023/04/23 04:11:17;;;;;;;57.83;32.83;;;;;;;;;;4968238;28;96026;-68
2023/04/23 04:13:44;;;;;;;59.38;30.15;;;;;;;;;;4965947;28;92637;-68
2023/04/23 04:16:10;;;;;;;57.17;32.28;;;;;;;;;;4971048;28;93144;-68
2023/04/23 04:18:38;;;;;;;57.88;32.60;;;;;;;;;;4965137;28;94385;-68
2023/04/23 04:21:04;;;;;;;59.40;33.03;;;;;;;;;;4971224;28;92480;-68
2023/04/23 04:23:32;;;;;;;56.00;31.63;;;;;;;;;;4967541;28;93405;-68
2023/04/23 04:25:58;;;;;;;60.72;32.42;;;;;;;;;;4964187;28;92582;-68
2023/04/23 04:28:25;;;;;;;53.72;30.58;;;;;;;;;;4954570;28;94242;-68
2023/04/23 04:30:52;;;;;;;55.63;30.33;;;;;;;;;;4966882;28;93527;-68
2023/04/23 04:33:19;;;;;;;54.33;30.17;;;;;;;;;;4970699;28;92575;-68
2023/04/23 04:35:48;;;;;;;55.03;30.42;;;;;;;;;;4963869;28;94905;-68
2023/04/23 04:38:15;;;;;;;53.40;30.90;;;;;;;;;;4954299;28;93974;-68
2023/04/23 04:40:41;;;;;;;56.15;28.50;;;;;;;;;;4972678;28;92478;-68
2023/04/23 04:43:08;;;;;;;51.55;30.23;;;;;;;;;;4972520;28;94551;-68
2023/04/23 04:45:35;;;;;;;48.95;29.90;;;;;;;;;;4974549;28;93444;-68
2023/04/23 04:48:01;;;;;;;45.38;27.45;;;;;;;;;;4971641;28;94312;-68
2023/04/23 04:50:27;;;;;;;53.47;28.88;;;;;;;;;;4962987;28;93326;-68
2023/04/23 04:52:54;;;;;;;54.17;29.95;;;;;;;;;;4966248;28;91731;-68
2023/04/23 04:55:20;;;;;;;46.92;28.90;;;;;;;;;;4963221;28;93578;-68
2023/04/23 04:57:46;;;;;;;53.92;30.13;;;;;;;;;;4970146;28;94476;-68
2023/04/23 05:00:23;;;;;;;53.50;29.73;;;;;;;;;;4952575;28;94905;-68
2023/04/23 05:02:49;;;;;;;54.33;28.73;;;;;;;;;;4968265;28;96788;-68
2023/04/23 05:05:16;;;;;;;49.78;28.50;;;;;;;;;;4973248;28;93481;-68
2023/04/23 05:07:42;;;;;;;46.65;28.05;;;;;;;;;;4967564;28;92470;-68
2023/04/23 05:10:09;;;;;;;46.90;27.90;;;;;;;;;;4955812;28;93774;-68
2023/04/23 05:12:40;;;;;;;49.00;28.10;;;;;;;;;;4962006;28;92456;-68
2023/04/23 05:15:12;;;;;;;48.80;28.75;;;;;;;;;;4973212;28;93325;-68
2023/04/23 05:17:38;;;;;;;46.15;27.92;;;;;;;;;;4972980;28;92697;-68
2023/04/23 05:20:05;;;;;;;43.95;27.35;;;;;;;;;;4971694;28;92566;-68
2023/04/23 05:22:31;;;;;;;46.08;26.95;;;;;;;;;;4956815;28;94367;-68
2023/04/23 05:24:57;;;;;;;45.33;27.40;;;;;;;;;;4953619;28;96890;-68
2023/04/23 05:27:24;;;;;;;47.50;28.05;;;;;;;;;;4957635;28;92828;-68
2023/04/23 05:29:50;;;;;;;47.28;27.75;;;;;;;;;;4959077;28;93281;-68
2023/04/23 05:32:16;;;;;;;42.78;26.65;;;;;;;;;;4970215;28;92600;-68
2023/04/23 05:34:43;;;;;;;49.42;27.25;;;;;;;;;;4975426;28;94252;-68
2023/04/23 05:37:09;;;;;;;42.55;27.02;;;;;;;;;;4975286;28;93799;-68
2023/04/23 05:39:36;;;;;;;46.20;26.42;;;;;;;;;;4975292;28;95082;-68
2023/04/23 05:42:02;;;;;;;43.38;26.67;;;;;;;;;;4973364;28;93210;-68
2023/04/23 05:44:29;;;;;;;40.78;25.30;;;;;;;;;;4971133;28;94502;-68
2023/04/23 05:46:55;;;;;;;44.22;26.58;;;;;;;;;;4970630;28;93231;-68
2023/04/23 05:49:21;;;;;;;43.45;26.63;;;;;;;;;;4962326;28;94948;-68
2023/04/23 05:51:48;;;;;;;43.95;25.40;;;;;;;;;;4973764;28;94500;-68
2023/04/23 05:54:15;;;;;;;40.45;25.58;;;;;;;;;;4973988;28;93602;-68
2023/04/23 05:56:41;;;;;;;44.35;24.85;;;;;;;;;;4974861;28;93388;-68
2023/04/23 05:59:07;;;;;;;40.85;25.55;;;;;;;;;;4973344;28;92623;-68
2023/04/23 06:01:34;;;;;;;39.72;24.52;;;;;;;;;;4963666;28;93215;-68
2023/04/23 06:04:01;;;;;;;40.75;24.50;;;;;;;;;;4962427;28;93447;-68
2023/04/23 06:06:27;;;;;;;42.40;24.52;;;;;;;;;;4975208;28;93355;-68
2023/04/23 06:08:53;;;;;;;35.83;23.98;;;;;;;;;;4975882;28;92852;-68
2023/04/23 06:11:20;;;;;;;37.65;24.35;;;;;;;;;;4977291;28;94402;-68
2023/04/23 06:13:46;;;;;;;35.85;24.13;;;;;;;;;;4972977;28;94930;-68
2023/04/23 06:16:12;;;;;;;38.65;24.27;;;;;;;;;;4971707;28;94892;-68
2023/04/23 06:18:39;;;;;;;35.65;23.75;;;;;;;;;;4964436;28;92400;-68
2023/04/23 06:21:05;;;;;;;35.95;23.95;;;;;;;;;;4966391;28;94260;-68
2023/04/23 06:23:32;;;;;;;35.10;24.17;;;;;;;;;;4966490;28;93389;-68
2023/04/23 06:25:59;;;;;;;35.13;22.67;;;;;;;;;;4959446;28;92414;-68
2023/04/23 06:28:25;;;;;;;34.40;22.05;;;;;;;;;;4972673;28;93384;-68
2023/04/23 06:30:52;;;;;;;35.70;22.80;;;;;;;;;;4971983;28;92657;-69
2023/04/23 06:33:18;;;;;;;36.60;22.65;;;;;;;;;;4966968;28;95097;-70
2023/04/23 06:35:45;;;;;;;35.50;22.90;;;;;;;;;;4971119;28;93491;-69
2023/04/23 06:38:12;;;;;;;33.25;22.13;;;;;;;;;;4972318;28;96276;-70
2023/04/23 06:40:39;;;;;;;36.90;21.33;;;;;;;;;;4970935;28;96831;-70
2023/04/23 06:43:06;;;;;;;29.63;20.70;;;;;;;;;;4968641;28;93480;-69
2023/04/23 06:45:33;;;;;;;28.80;19.65;;;;;;;;;;4973153;28;92546;-69
2023/04/23 06:47:59;;;;;;;27.45;19.38;;;;;;;;;;4979994;28;93131;-68
2023/04/23 06:50:26;;;;;;;29.75;18.85;;;;;;;;;;4973265;28;93289;-69
2023/04/23 06:52:53;;;;;;;29.00;18.90;;;;;;;;;;4968761;28;92520;-68
2023/04/23 06:55:20;;;;;;;25.35;18.30;;;;;;;;;;4975828;28;93266;-68
2023/04/23 06:57:47;;;;;;;26.02;16.95;;;;;;;;;;4970855;28;92504;-70
2023/04/23 07:00:13;;;;;;;25.13;17.65;;;;;;;;;;4962498;28;94601;-70
2023/04/23 07:02:39;;;;;;;26.30;16.70;;;;;;;;;;4970905;28;96012;-70
2023/04/23 07:05:06;;;;;;;27.10;16.17;;;;;;;;;;4973941;28;92454;-69
2023/04/23 07:07:36;;;;;;;21.42;14.88;;;;;;;;;;4971980;28;93245;-70
2023/04/23 07:10:03;;;;;;;26.92;17.48;;;;;;;;;;4966989;28;94445;-69
2023/04/23 07:12:30;;;;;;;26.45;17.45;;;;;;;;;;4972607;28;92489;-69
2023/04/23 07:14:56;;;;;;;24.63;15.55;;;;;;;;;;4971996;28;93328;-71
2023/04/23 07:17:22;;;;;;;20.23;14.93;;;;;;;;;;4976159;28;93419;-70
2023/04/23 07:19:49;;;;;;;19.42;14.68;;;;;;;;;;4970145;28;93473;-70
2023/04/23 07:22:16;;;;;;;22.60;14.85;;;;;;;;;;4961360;28;93205;-70
2023/04/23 07:24:42;;;;;;;20.00;14.15;;;;;;;;;;4974329;28;92444;-70
2023/04/23 07:27:09;;;;;;;20.30;12.90;;;;;;;;;;4972938;28;95068;-70
2023/04/23 07:29:35;;;;;;;22.10;14.18;;;;;;;;;;4972598;28;93430;-69
2023/04/23 07:32:02;;;;;;;15.93;13.23;;;;;;;;;;4961587;28;92675;-69
2023/04/23 07:34:28;;;;;;;21.63;13.57;;;;;;;;;;4969631;28;94270;-69
2023/04/23 07:36:56;;;;;;;20.98;13.57;;;;;;;;;;4973498;28;93457;-69
2023/04/23 07:39:22;;;;;;;17.95;13.00;;;;;;;;;;4977315;28;92416;-69
2023/04/23 07:41:48;;;;;;;17.98;11.48;;;;;;;;;;4973223;28;94304;-70
2023/04/23 07:44:15;;;;;;;16.27;11.65;;;;;;;;;;4961552;28;91871;-70
2023/04/23 07:46:41;;;;;;;19.40;9.57;;;;;;;;;;4972679;28;92749;-70
2023/04/23 07:49:07;;;;;;;15.05;10.02;;;;;;;;;;4972679;28;93441;-69
2023/04/23 07:51:34;;;;;;;15.57;10.23;;;;;;;;;;4972072;28;95069;-70
2023/04/23 07:54:01;;;;;;;17.40;9.23;;;;;;;;;;4969350;28;95788;-69
2023/04/23 07:56:31;;;;;;;12.60;7.78;;;;;;;;;;4963027;28;94094;-69
2023/04/23 07:58:57;;;;;;;14.77;8.83;;;;;;;;;;4969621;28;92680;-69
2023/04/23 08:01:24;;;;;;;45.00;9.65;;;;;;;;;;4977067;28;94331;-68
2023/04/23 08:03:51;;;;;;;16.15;8.70;;;;;;;;;;4973581;28;92684;-70
2023/04/23 08:06:18;;;;;;;17.45;8.75;;;;;;;;;;4972456;28;93438;-71
2023/04/23 08:08:44;;;;;;;15.25;8.57;;;;;;;;;;4975272;28;91980;-70
2023/04/23 08:11:10;;;;;;;17.60;8.35;;;;;;;;;;4965996;28;92716;-71
2023/04/23 08:13:36;;;;;;;11.93;7.60;;;;;;;;;;4973180;28;93372;-71
2023/04/23 08:16:03;;;;;;;10.20;7.00;;;;;;;;;;4972212;28;95813;-71
2023/04/23 08:18:29;;;;;;;11.30;6.50;;;;;;;;;;4972641;28;92543;-71
2023/04/23 08:20:56;;;;;;;18.85;6.57;;;;;;;;;;4971911;28;94224;-71
2023/04/23 08:23:22;;;;;;;13.93;7.35;;;;;;;;;;4954993;28;92491;-71
2023/04/23 08:25:49;;;;;;;13.25;7.22;;;;;;;;;;4972608;28;93700;-71
2023/04/23 08:28:16;;;;;;;16.70;6.82;;;;;;;;;;4973916;28;93563;-71
2023/04/23 08:30:43;;;;;;;15.43;6.97;;;;;;;;;;4961999;28;92505;-71
2023/04/23 08:33:09;;;;;;;14.10;7.32;;;;;;;;;;4973711;28;93447;-71
2023/04/23 08:35:35;;;;;;;15.80;6.68;;;;;;;;;;4974101;28;94564;-71
2023/04/23 08:38:02;;;;;;;14.30;7.30;;;;;;;;;;4972556;28;92909;-70
2023/04/23 08:40:29;;;;;;;17.70;7.10;;;;;;;;;;4970485;28;94796;-71
2023/04/23 08:42:55;;;;;;;12.93;6.40;;;;;;;;;;4975225;28;93413;-71
2023/04/23 08:45:22;;;;;;;11.45;6.05;;;;;;;;;;4971930;28;93014;-71
2023/04/23 08:47:49;;;;;;;13.60;6.22;;;;;;;;;;4968268;28;94779;-72
2023/04/23 08:50:17;;;;;;;15.30;6.72;;;;;;;;;;4961559;28;92526;-70
2023/04/23 08:52:46;;;;;;;14.65;6.53;;;;;;;;;;4973692;28;93089;-71
2023/04/23 08:55:14;;;;;;;12.68;6.60;;;;;;;;;;4974231;28;94520;-71
2023/04/23 08:57:41;;;;;;;15.82;6.00;;;;;;;;;;4973055;28;91924;-72
2023/04/23 09:00:09;;;;;;;16.52;6.10;;;;;;;;;;4967272;28;94383;-71
2023/04/23 09:02:39;;;;;;;15.18;5.53;;;;;;;;;;4976150;28;93288;-71
2023/04/23 09:05:07;;;;;;;24.70;6.47;;;;;;;;;;4962142;28;94999;-71
2023/04/23 09:07:34;;;;;;;14.43;5.47;;;;;;;;;;4969836;28;94519;-71
2023/04/23 09:10:01;;;;;;;14.85;5.95;;;;;;;;;;4973528;28;92519;-71
2023/04/23 09:12:28;;;;;;;15.25;5.53;;;;;;;;;;4980309;28;93576;-71
2023/04/23 09:14:55;;;;;;;10.20;4.43;;;;;;;;;;5001812;28;92314;-71
2023/04/23 09:17:22;;;;;;;14.68;5.53;;;;;;;;;;5001256;28;92285;-70
2023/04/23 09:19:51;;;;;;;12.38;5.10;;;;;;;;;;4997517;28;93316;-70
2023/04/23 09:22:36;;;;;;;17.73;5.32;;;;;;;;;;4985828;28;91620;-70
2023/04/23 09:25:04;;;;;;;9.43;3.50;;;;;;;;;;4981624;28;92268;-71
2023/04/23 09:27:30;;;;;;;15.65;4.30;;;;;;;;;;4997890;28;93924;-70
2023/04/23 09:29:58;;;;;;;15.90;4.53;;;;;;;;;;4998510;28;94366;-71
2023/04/23 09:32:32;;;;;;;20.13;4.55;;;;;;;;;;5000497;28;94989;-71
2023/04/23 09:35:00;;;;;;;13.15;3.90;;;;;;;;;;4998032;28;93162;-71
2023/04/23 09:37:27;;;;;;;16.13;3.67;;;;;;;;;;4997278;28;92179;-71
2023/04/23 09:39:55;;;;;;;16.25;4.03;;;;;;;;;;4999110;28;92932;-71
2023/04/23 09:42:22;;;;;;;11.40;4.32;;;;;;;;;;4978263;28;93621;-72
2023/04/23 09:44:55;;;;;;;11.82;3.22;;;;;;;;;;4974952;28;92911;-72
2023/04/23 09:47:22;;;;;;;13.77;3.97;;;;;;;;;;4977692;28;93763;-71
2023/04/23 09:49:50;;;;;;;14.85;4.20;;;;;;;;;;4978562;28;92888;-72
2023/04/23 09:52:18;;;;;;;12.35;3.28;;;;;;;;;;4977456;28;92958;-71
2023/04/23 09:54:45;;;;;;;17.40;4.03;;;;;;;;;;4975119;28;94971;-71
2023/04/23 09:57:11;;;;;;;13.02;3.83;;;;;;;;;;4975955;28;92560;-71
2023/04/23 09:59:38;;;;;;;12.27;3.50;;;;;;;;;;4977079;28;93191;-68
2023/04/23 10:02:15;;;;;;;12.43;3.65;;;;;;;;;;4976938;28;93741;-71
2023/04/23 10:04:41;;;;;;;12.55;4.03;;;;;;;;;;4976812;28;92801;-68
2023/04/23 10:07:12;;;;;;;9.23;3.13;;;;;;;;;;4975441;28;94000;-69
2023/04/23 10:09:41;;;;;;;11.68;3.30;;;;;;;;;;4972110;28;94169;-71
2023/04/23 10:12:09;;;;;;;14.95;3.90;;;;;;;;;;4974325;28;91726;-70
2023/04/23 10:14:58;;;;;;;14.73;3.83;;;;;;;;;;4971577;28;96650;-70
2023/04/23 10:17:25;;;;;;;11.05;3.33;;;;;;;;;;4974997;28;92816;-70
2023/04/23 10:19:51;;;;;;;15.48;3.60;;;;;;;;;;4975514;28;95035;-68
2023/04/23 10:22:19;;;;;;;13.63;3.45;;;;;;;;;;4969684;28;93862;-68
2023/04/23 10:24:50;;;;;;;16.63;3.10;;;;;;;;;;4976692;28;92455;-69
2023/04/23 10:27:18;;;;;;;7.18;2.97;;;;;;;;;;4975486;28;92995;-70
2023/04/23 10:29:47;;;;;;;;;;;;;;;;;;4975520;28;93292;-69
2023/04/23 10:32:14;;;;;;;5.07;2.20;;;;;;;;;;4977509;28;116340;-71
2023/04/23 10:34:40;;;;;;;13.60;3.42;;;;;;;;;;4976293;28;93481;-71
2023/04/23 10:37:07;;;;;;;10.68;2.90;;;;;;;;;;4976828;28;91656;-69
2023/04/23 10:39:34;;;;;;;8.38;2.60;;;;;;;;;;4975500;28;92647;-70
2023/04/23 10:42:01;;;;;;;9.15;2.50;;;;;;;;;;4969709;28;93698;-70
2023/04/23 10:44:31;;;;;;;16.42;2.63;;;;;;;;;;4974640;28;94820;-70
2023/04/23 10:47:19;;;;;;;8.73;2.30;;;;;;;;;;4973217;28;97932;-71
2023/04/23 10:49:45;;;;;;;9.52;2.47;;;;;;;;;;4971986;28;94245;-71
2023/04/23 10:52:14;;;;;;;17.08;3.10;;;;;;;;;;4961206;28;92741;-71
2023/04/23 10:54:56;;;;;;;13.20;3.00;;;;;;;;;;4976209;28;93808;-70
2023/04/23 10:57:22;;;;;;;6.43;2.38;;;;;;;;;;4965533;28;92761;-70
2023/04/23 10:59:55;;;;;;;13.05;2.70;;;;;;;;;;4975601;28;93007;-70
2023/04/23 11:02:22;;;;;;;9.85;2.42;;;;;;;;;;4976049;28;92637;-70
2023/04/23 11:04:56;;;;;;;9.05;2.47;;;;;;;;;;4961120;28;92376;-71
2023/04/23 11:07:29;;;;;;;7.57;2.50;;;;;;;;;;4964756;28;93138;-71
2023/04/23 11:09:58;;;;;;;10.38;2.17;;;;;;;;;;4973606;28;95943;-69
2023/04/23 11:12:27;;;;;;;7.03;2.05;;;;;;;;;;4968329;28;93759;-71
2023/04/23 11:14:54;;;;;;;6.85;1.70;;;;;;;;;;4962104;28;92419;-71
2023/04/23 11:17:21;;;;;;;10.43;1.80;;;;;;;;;;4974391;28;93462;-71
2023/04/23 11:20:03;;;;;;;7.03;1.70;;;;;;;;;;4969105;28;93951;-70
2023/04/23 11:22:36;;;;;;;5.55;1.70;;;;;;;;;;4963114;28;93604;-68
2023/04/23 11:25:04;;;;;;;5.25;1.88;;;;;;;;;;4955099;28;92539;-69
2023/04/23 11:27:31;;;;;;;10.02;2.30;;;;;;;;;;4966113;28;93186;-69
2023/04/23 11:29:57;;;;;;;14.35;2.08;;;;;;;;;;4975455;28;94437;-68
2023/04/23 11:32:26;;;;;;;8.05;1.98;;;;;;;;;;4975271;28;92441;-71
2023/04/23 11:34:53;;;;;;;10.85;2.25;;;;;;;;;;4969300;28;95247;-70
2023/04/23 11:37:20;;;;;;;8.20;2.10;;;;;;;;;;4962967;28;94480;-70
2023/04/23 11:39:48;;;;;;;9.55;1.73;;;;;;;;;;4976957;28;92742;-71
2023/04/23 11:42:15;;;;;;;8.52;1.98;;;;;;;;;;4972239;28;93704;-70
2023/04/23 11:44:42;;;;;;;12.93;2.05;;;;;;;;;;4960574;28;92881;-71
2023/04/23 11:47:12;;;;;;;7.75;1.98;;;;;;;;;;4964677;28;94048;-71
2023/04/23 11:49:39;;;;;;;7.63;2.22;;;;;;;;;;4960512;28;93220;-71
2023/04/23 11:52:06;;;;;;;9.07;1.58;;;;;;;;;;4971679;28;91884;-71
2023/04/23 11:54:33;;;;;;;8.88;2.20;;;;;;;;;;4973308;28;92585;-70
2023/04/23 11:57:00;;;;;;;9.40;2.03;;;;;;;;;;4965142;28;94447;-70
2023/04/23 11:59:27;;;;;;;7.68;2.00;;;;;;;;;;4967314;28;94835;-70
2023/04/23 12:01:54;;;;;;;9.50;2.08;;;;;;;;;;4963629;28;95499;-72
2023/04/23 12:04:22;;;;;;;7.82;1.98;;;;;;;;;;4974647;28;92825;-71
2023/04/23 12:06:49;;;;;;;3.88;1.48;;;;;;;;;;4972932;28;94398;-71
2023/04/23 12:09:17;;;;;;;7.28;1.75;;;;;;;;;;4973010;28;93958;-70
2023/04/23 12:11:44;;;;;;;8.27;2.05;;;;;;;;;;4971184;28;92547;-71
2023/04/23 12:14:11;;;;;;;10.40;2.08;;;;;;;;;;4955315;28;93129;-70
2023/04/23 12:16:41;;;;;;;7.85;1.95;;;;;;;;;;4960175;28;92887;-70
2023/04/23 12:19:08;;;;;;;;;;;;;;;;;;4968121;28;92457;-70
2023/04/23 12:21:34;;;;;;;4.70;1.77;;;;;;;;;;4974451;28;121567;-70
2023/04/23 12:24:02;;;;;;;12.45;1.77;;;;;;;;;;4973223;28;95207;-71
2023/04/23 12:26:30;;;;;;;5.10;1.88;;;;;;;;;;4972098;28;96600;-70
2023/04/23 12:28:58;;;;;;;5.13;1.42;;;;;;;;;;4964209;28;93433;-71
2023/04/23 12:31:26;;;;;;;6.05;1.52;;;;;;;;;;4969287;28;92625;-70
2023/04/23 12:34:13;;;;;;;7.40;1.65;;;;;;;;;;4971491;28;93072;-71
2023/04/23 12:36:42;;;;;;;5.15;1.35;;;;;;;;;;4963847;28;93504;-70
2023/04/23 12:39:22;;;;;;;7.65;2.22;;;;;;;;;;4967492;28;94101;-71
2023/04/23 12:41:52;;;;;;;3.93;1.43;;;;;;;;;;4971631;28;93607;-70
2023/04/23 12:44:18;;;;;;;;;;;;;;;;;;4976357;28;94416;-70
2023/04/23 12:46:48;;;;;;;4.50;1.40;;;;;;;;;;4971912;28;121657;-70
2023/04/23 12:49:14;;;;;;;4.43;1.73;;;;;;;;;;4969974;28;95849;-70
2023/04/23 12:51:40;;;;;;;3.70;1.48;;;;;;;;;;4971892;28;92529;-70
2023/04/23 12:54:07;;;;;;;7.72;1.42;;;;;;;;;;4973592;28;93548;-70
2023/04/23 12:56:35;;;;;;;8.10;1.88;;;;;;;;;;4970844;28;92500;-71
2023/04/23 12:59:01;;;;;;;4.07;1.58;;;;;;;;;;4962117;28;92453;-70
2023/04/23 13:01:28;;;;;;;9.32;1.98;;;;;;;;;;4964229;28;93198;-70
2023/04/23 13:03:54;;;;;;;5.30;1.77;;;;;;;;;;4970451;28;93947;-70
2023/04/23 13:06:20;;;;;;;6.47;1.85;;;;;;;;;;4968833;28;93133;-72
2023/04/23 13:08:47;;;;;;;5.18;1.73;;;;;;;;;;4962872;28;93423;-72
2023/04/23 13:11:13;;;;;;;7.75;1.33;;;;;;;;;;4958659;28;92760;-72
2023/04/23 13:13:39;;;;;;;6.40;1.30;;;;;;;;;;4958433;28;96712;-72
2023/04/23 13:16:06;;;;;;;4.07;1.27;;;;;;;;;;4959895;28;93435;-71
2023/04/23 13:18:32;;;;;;;7.53;1.25;;;;;;;;;;4957133;28;92980;-70
2023/04/23 13:20:58;;;;;;;7.60;1.83;;;;;;;;;;4955886;28;93754;-71
2023/04/23 13:23:25;;;;;;;6.55;1.52;;;;;;;;;;4969490;28;93790;-71
2023/04/23 13:25:51;;;;;;;6.70;1.65;;;;;;;;;;4971364;28;92583;-69
2023/04/23 13:28:17;;;;;;;6.57;2.00;;;;;;;;;;4974886;28;93159;-72
2023/04/23 13:30:44;;;;;;;5.32;1.70;;;;;;;;;;4964440;28;91823;-72
2023/04/23 13:33:10;;;;;;;2.92;1.23;;;;;;;;;;4957910;28;92450;-74
2023/04/23 13:35:36;;;;;;;4.38;1.20;;;;;;;;;;4956427;28;93611;-74
2023/04/23 13:38:03;;;;;;;4.88;1.48;;;;;;;;;;4970401;28;95288;-71
2023/04/23 13:40:30;;;;;;;3.75;1.50;;;;;;;;;;4963843;28;95612;-71
2023/04/23 13:42:56;;;;;;;5.20;1.33;;;;;;;;;;4969570;28;93536;-72
2023/04/23 13:45:22;;;;;;;4.80;1.60;;;;;;;;;;4974583;28;92430;-71
2023/04/23 13:47:49;;;;;;;3.75;1.20;;;;;;;;;;4973950;28;93030;-71
2023/04/23 13:50:16;;;;;;;4.80;1.30;;;;;;;;;;4979953;28;94904;-71
2023/04/23 13:52:42;;;;;;;3.75;1.35;;;;;;;;;;4972462;28;93457;-72
2023/04/23 13:55:09;;;;;;;9.20;1.90;;;;;;;;;;4977160;28;92840;-72
2023/04/23 13:57:37;;;;;;;4.28;1.50;;;;;;;;;;4976238;28;92424;-71
2023/04/23 14:00:03;;;;;;;7.22;1.38;;;;;;;;;;4976845;28;93195;-71
2023/04/23 14:02:30;;;;;;;7.40;1.67;;;;;;;;;;4974364;28;95777;-73
2023/04/23 14:04:57;;;;;;;6.13;1.85;;;;;;;;;;4965383;28;92625;-73
2023/04/23 14:07:23;;;;;;;9.23;1.65;;;;;;;;;;4975627;28;93118;-74
2023/04/23 14:09:51;;;;;;;9.65;1.90;;;;;;;;;;4975329;28;93633;-73
2023/04/23 14:12:18;;;;;;;6.30;1.73;;;;;;;;;;4978205;28;92862;-73
2023/04/23 14:14:45;;;;;;;5.95;1.92;;;;;;;;;;4969189;28;94489;-73
2023/04/23 14:17:11;;;;;;;6.35;1.52;;;;;;;;;;4975084;28;93175;-73
2023/04/23 14:19:37;;;;;;;4.53;1.38;;;;;;;;;;4976861;28;93153;-73
2023/04/23 14:22:03;;;;;;;7.97;1.65;;;;;;;;;;4963831;28;93418;-74
2023/04/23 14:24:33;;;;;;;6.13;2.00;;;;;;;;;;4965814;28;92902;-73
2023/04/23 14:27:00;;;;;;;7.25;1.75;;;;;;;;;;4973523;28;95008;-72